Beiye, China

48°F / 9°C
Overcast
Humidity: 87%
Dew Point: 45°F / 7°C
Wind: ESE at 4 mph / 7 km/h
Pressure: 30.06 in / 1018 hPa (Steady)
Visibility: 6.2 miles / 10.0 kilometers
Clouds: Overcast (OVC) : 4000 ft / 1219 m
Yesterday's Maximum: 55°F / 13°C
Yesterday's Minimum: 50°F / 10°C approx.
Yesterday's Heating Degree Days: 12 approx.
UV: 0 out of 16
Sunrise:5:35 AM CST
Sunset:7:10 PM CST
Moon Rise:12:58 AM CST
Moon Set:10:52 AM CST
Moon Phase Waning Gibbous
NOAA Weather Radio
No local feed.
METAR ZBSJ 251900Z 11002MPS 9999 OVC040 09/07 Q1018 NOSIG
As of: 3:00 AM CST on April 26, 2019
Observed at: Zhengding, China

View Station's History

Local Satellite

Current Satellite Forecast
Region Default Local
No Yes

View Full Screen WunderMap

Forecast

Current Satellite Forecast

Features

Weather Apps

WunderRadio

Weather Underground Apps
Check out our wide variety of mobile and setup applications.

Weather Underground Applications

Top of Page

© Copyright 2019
The Weather Company, LLC